Time;durP1;ratioP1;P1;durP2;ratioP2;P2;SDS_P1;SDS_P2;PMS_P1;PMS_P2;Temp;Humidity;BMP_temperature;BMP_pressure;BME280_temperature;BME280_humidity;BME280_pressure;Samples;Min_cycle;Max_cycle;Signal;HPM_P1;HPM_P2
2022/01/12 00:02:12;;;;;;;8.77;5.80;;;;;;;0.84;100.00;102019.88;4997142;28;20019;-80
2022/01/12 00:04:37;;;;;;;12.65;6.35;;;;;;;0.78;100.00;102005.66;4998819;28;20027;-81
2022/01/12 00:07:02;;;;;;;9.88;5.95;;;;;;;0.78;100.00;102000.41;4997400;28;20018;-80
2022/01/12 00:09:28;;;;;;;11.13;5.68;;;;;;;0.82;100.00;101995.25;4997905;28;20052;-80
2022/01/12 00:11:53;;;;;;;10.90;6.32;;;;;;;0.83;100.00;102005.81;4999131;28;20037;-80
2022/01/12 00:14:18;;;;;;;10.85;6.45;;;;;;;0.84;100.00;102002.38;5000406;28;20078;-80
2022/01/12 00:16:47;;;;;;;13.23;5.95;;;;;;;0.82;100.00;102003.16;5000821;28;20026;-81
2022/01/12 00:19:13;;;;;;;9.98;5.43;;;;;;;0.77;100.00;102001.22;4999109;28;20022;-81
2022/01/12 00:21:38;;;;;;;12.48;5.90;;;;;;;0.83;100.00;102004.91;5000066;28;20022;-81
2022/01/12 00:24:04;;;;;;;12.70;5.93;;;;;;;0.83;100.00;102002.28;4996817;28;20479;-81
2022/01/12 00:34:30;;;;;;;10.77;5.30;;;;;;;0.78;100.00;101995.13;4997172;28;20029;-81
2022/01/12 00:36:55;;;;;;;11.07;5.55;;;;;;;0.71;100.00;101987.84;4996408;28;20042;-81
2022/01/12 00:39:21;;;;;;;8.00;5.03;;;;;;;0.72;100.00;101994.88;4995459;28;20109;-81
2022/01/12 00:41:47;;;;;;;10.07;5.25;;;;;;;0.64;100.00;101986.72;4996000;28;20026;-81
2022/01/12 00:44:22;;;;;;;10.02;5.32;;;;;;;0.66;100.00;101989.41;4999008;28;20085;-81
2022/01/12 00:46:49;;;;;;;9.07;5.22;;;;;;;0.63;100.00;102000.69;4997467;28;20133;-81
2022/01/12 00:49:14;;;;;;;8.52;4.65;;;;;;;0.65;100.00;102003.38;4996077;28;20031;-80
2022/01/12 00:51:39;;;;;;;10.82;5.78;;;;;;;0.66;100.00;101994.66;4996162;28;20098;-80
2022/01/12 00:54:06;;;;;;;11.15;5.43;;;;;;;0.72;100.00;101994.00;4996922;28;20022;-80
2022/01/12 00:56:32;;;;;;;9.90;5.78;;;;;;;0.65;100.00;102008.63;4997300;28;20030;-80
2022/01/12 00:58:57;;;;;;;10.95;5.72;;;;;;;0.84;100.00;102014.63;4996302;28;20475;-81
2022/01/12 01:01:24;;;;;;;10.05;5.57;;;;;;;1.04;100.00;102009.22;4996665;28;20073;-80
2022/01/12 01:03:50;;;;;;;11.23;5.57;;;;;;;0.97;100.00;102002.84;4995421;28;20053;-80
2022/01/12 01:06:16;;;;;;;12.48;5.95;;;;;;;0.89;100.00;101987.66;4997486;28;20030;-80
2022/01/12 01:08:43;;;;;;;12.27;6.35;;;;;;;1.08;100.00;102005.88;4997862;28;20057;-80
2022/01/12 01:11:09;;;;;;;8.93;5.53;;;;;;;1.10;99.34;102015.63;4997007;28;20022;-80
2022/01/12 01:13:42;;;;;;;13.55;5.55;;;;;;;1.29;98.21;102018.03;4997868;28;20045;-80
2022/01/12 01:26:51;;;;;;;10.85;5.68;;;;;;;1.19;99.05;102012.41;5001834;28;20062;-80
2022/01/12 01:29:17;;;;;;;11.55;5.28;;;;;;;1.20;98.77;102016.84;5000995;28;20030;-80
2022/01/12 01:31:44;;;;;;;12.68;5.50;;;;;;;1.30;98.24;102028.59;5000410;28;20030;-80
2022/01/12 01:34:13;;;;;;;11.23;5.78;;;;;;;1.25;98.44;102035.44;5000548;28;20026;-80
2022/01/12 01:36:45;;;;;;;11.57;5.82;;;;;;;1.21;98.18;102042.31;4999695;28;20026;-80
2022/01/12 01:39:14;;;;;;;11.00;5.90;;;;;;;1.16;99.41;102049.13;4999574;28;20018;-80
2022/01/12 01:41:42;;;;;;;13.15;5.60;;;;;;;1.21;98.41;102034.41;4999534;28;20029;-80
2022/01/12 01:53:19;;;;;;;12.57;5.88;;;;;;;1.19;99.09;102053.63;5000754;28;20072;-80
2022/01/12 01:55:09;;;;;;;8.52;5.68;;;;;;;1.10;99.44;102068.25;5001019;28;20026;-80
2022/01/12 01:57:35;;;;;;;10.85;6.28;;;;;;;1.13;99.90;102072.72;4999310;28;20030;-80
2022/01/12 02:00:08;;;;;;;9.68;6.40;;;;;;;1.05;100.00;102077.69;5001032;28;20030;-80
2022/01/12 02:02:33;;;;;;;10.40;5.75;;;;;;;1.16;100.00;102080.72;5000807;28;20106;-80
2022/01/12 02:04:59;;;;;;;8.57;5.75;;;;;;;1.30;98.54;102085.63;4999788;28;20575;-80
2022/01/12 02:07:24;;;;;;;10.32;6.03;;;;;;;1.26;98.90;102076.72;5000826;28;20030;-80
2022/01/12 02:09:49;;;;;;;11.57;6.00;;;;;;;1.38;98.74;102078.00;5000644;28;20025;-80
2022/01/12 02:12:23;;;;;;;10.50;5.93;;;;;;;1.29;98.54;102075.94;5000831;28;20022;-80
2022/01/12 02:14:49;;;;;;;11.52;6.18;;;;;;;1.21;99.18;102078.28;4999411;28;20057;-80
2022/01/12 02:17:19;;;;;;;10.50;6.07;;;;;;;1.15;100.00;102078.03;5000132;28;20026;-80
2022/01/12 02:36:30;;;;;;;9.88;5.68;;;;;;;1.07;100.00;102069.84;5000393;28;20049;-80
2022/01/12 02:41:42;;;;;;;10.68;5.65;;;;;;;1.11;100.00;102075.28;4999767;28;20403;-80
2022/01/12 02:54:52;;;;;;;10.63;5.50;;;;;;;1.22;99.69;102101.09;5003639;28;20023;-80
2022/01/12 02:57:17;;;;;;;11.05;5.35;;;;;;;1.15;99.18;102092.09;4998228;28;20037;-80
2022/01/12 03:00:04;;;;;;;11.43;5.95;;;;;;;1.06;100.00;102090.00;4997927;28;20030;-80
2022/01/12 03:02:38;;;;;;;8.88;5.40;;;;;;;1.04;100.00;102090.78;4997963;28;20022;-79
2022/01/12 03:07:37;;;;;;;11.98;6.07;;;;;;;1.05;100.00;102087.31;5000615;28;20088;-80
2022/01/12 03:10:10;;;;;;;8.85;5.88;;;;;;;1.07;100.00;102086.53;4999573;28;20037;-80
2022/01/12 03:12:36;;;;;;;10.60;5.70;;;;;;;1.06;100.00;102078.56;4998512;28;20030;-80
2022/01/12 03:15:02;;;;;;;11.35;6.15;;;;;;;1.04;100.00;102069.72;4999471;28;20030;-81
2022/01/12 03:17:27;;;;;;;10.20;5.57;;;;;;;1.21;100.00;102070.38;4998417;28;20026;-80
2022/01/12 03:19:52;;;;;;;9.82;5.78;;;;;;;1.20;100.00;102069.47;4998557;28;20057;-80
2022/01/12 03:22:18;;;;;;;10.50;5.50;;;;;;;1.19;99.83;102067.69;4998851;28;20538;-81
2022/01/12 03:24:43;;;;;;;10.75;5.85;;;;;;;1.29;98.72;102070.69;5000572;28;20030;-80
2022/01/12 03:27:13;;;;;;;10.90;6.10;;;;;;;1.21;98.25;102073.88;4999919;28;20022;-80
2022/01/12 03:29:41;;;;;;;10.50;5.43;;;;;;;1.51;97.33;102074.09;4999658;28;20025;-80
2022/01/12 03:32:07;;;;;;;8.30;5.22;;;;;;;1.40;97.42;102079.84;4997937;28;20034;-81
2022/01/12 03:34:34;;;;;;;8.63;5.30;;;;;;;1.47;96.56;102080.09;4996290;28;20172;-80
2022/01/12 03:39:50;;;;;;;11.43;5.40;;;;;;;1.39;97.38;102067.53;4982878;28;20511;-80
2022/01/12 03:42:16;;;;;;;12.15;5.45;;;;;;;1.29;97.84;102070.69;4998415;28;20038;-81
2022/01/12 03:44:41;;;;;;;13.10;5.53;;;;;;;1.34;98.10;102077.00;4999390;28;20049;-81
2022/01/12 03:47:06;;;;;;;9.40;5.32;;;;;;;1.25;98.78;102068.75;5000254;28;20054;-80
2022/01/12 03:49:32;;;;;;;11.25;5.47;;;;;;;1.36;99.43;102079.69;4998925;28;20513;-80
2022/01/12 03:51:57;;;;;;;14.43;6.28;;;;;;;1.34;99.75;102080.50;4998924;28;20053;-80
2022/01/12 03:54:22;;;;;;;10.27;5.55;;;;;;;1.40;99.02;102085.13;4999455;28;20494;-81
2022/01/12 03:56:48;;;;;;;12.93;5.97;;;;;;;1.40;99.43;102090.38;5000237;28;20073;-80
2022/01/12 03:59:14;;;;;;;10.23;5.40;;;;;;;1.33;98.90;102081.38;4998919;28;20041;-80
2022/01/12 04:01:39;;;;;;;8.73;5.47;;;;;;;1.41;98.90;102088.66;4998616;28;20414;-80
2022/01/12 04:04:09;;;;;;;11.02;6.10;;;;;;;1.32;99.87;102087.47;5000315;28;20027;-80
2022/01/12 04:09:19;;;;;;;10.65;6.45;;;;;;;1.29;99.67;102089.09;4996634;28;20033;-81
2022/01/12 04:11:44;;;;;;;13.38;6.00;;;;;;;1.16;100.00;102091.25;4998755;28;20026;-81
2022/01/12 04:14:11;;;;;;;10.57;6.07;;;;;;;1.28;100.00;102088.19;4997670;28;20062;-80
2022/01/12 04:16:37;;;;;;;12.10;6.28;;;;;;;1.36;99.53;102083.22;4998428;28;20022;-82
2022/01/12 04:19:04;;;;;;;10.18;6.32;;;;;;;1.25;100.00;102079.28;4997208;28;20022;-81
2022/01/12 04:21:30;;;;;;;17.65;6.63;;;;;;;1.17;100.00;102077.25;4996342;28;20053;-80
2022/01/12 04:23:58;;;;;;;11.98;6.15;;;;;;;1.05;100.00;102063.63;4998035;28;20109;-81
2022/01/12 04:26:25;;;;;;;11.40;6.40;;;;;;;1.19;100.00;102058.88;4998076;28;20098;-81
2022/01/12 04:28:51;;;;;;;10.75;6.07;;;;;;;1.08;100.00;102072.53;4999702;28;20041;-81
2022/01/12 04:31:16;;;;;;;13.88;7.25;;;;;;;1.10;100.00;102065.63;4997310;28;20026;-82
2022/01/12 04:33:43;;;;;;;12.95;6.93;;;;;;;1.14;100.00;102058.72;4997735;28;20019;-79
2022/01/12 04:36:09;;;;;;;11.00;6.32;;;;;;;1.02;100.00;102071.41;4998044;28;20018;-80
2022/01/12 04:38:36;;;;;;;15.18;6.60;;;;;;;1.09;100.00;102071.69;4997196;28;20045;-82
2022/01/12 04:41:05;;;;;;;12.73;6.63;;;;;;;1.06;100.00;102076.84;4999842;28;20049;-81
2022/01/12 04:43:31;;;;;;;11.50;6.68;;;;;;;1.13;100.00;102096.41;4999048;28;20027;-80
2022/01/12 04:46:10;;;;;;;12.57;6.25;;;;;;;1.16;100.00;102109.66;5000033;28;20030;-80
2022/01/12 04:51:09;;;;;;;12.48;6.85;;;;;;;1.31;100.00;102129.53;5004251;28;20037;-80
2022/01/12 04:53:34;;;;;;;12.55;7.18;;;;;;;1.10;100.00;102133.13;5009243;28;20034;-81
2022/01/12 04:56:00;;;;;;;10.65;7.05;;;;;;;1.20;100.00;102137.00;5007898;28;20029;-81
2022/01/12 04:58:27;;;;;;;11.05;7.07;;;;;;;1.12;100.00;102139.34;5009339;28;20027;-81
2022/01/12 05:00:56;;;;;;;14.65;8.07;;;;;;;1.16;100.00;102130.72;5007362;28;20030;-81
2022/01/12 05:09:04;;;;;;;;;;;;;;;0.73;100.00;102115.03;5010169;28;20458;-80
2022/01/12 05:14:13;;;;;;;19.15;11.75;;;;;;;0.68;100.00;102113.94;5008592;28;20029;-82
2022/01/12 05:16:38;;;;;;;19.77;11.85;;;;;;;0.57;100.00;102110.00;5008211;28;20030;-81
2022/01/12 05:19:05;;;;;;;23.85;13.18;;;;;;;0.39;100.00;102106.66;5007023;28;20383;-82
2022/01/12 05:31:49;;;;;;;22.08;14.02;;;;;;;0.39;100.00;102116.25;5012851;22;20048;-74
2022/01/12 05:34:14;;;;;;;25.52;14.65;;;;;;;0.37;100.00;102117.94;4999152;28;20457;-74
2022/01/12 05:36:39;;;;;;;29.92;15.90;;;;;;;0.32;100.00;102120.38;5015947;28;20029;-74
2022/01/12 05:39:05;;;;;;;26.20;16.48;;;;;;;0.38;100.00;102117.09;5016556;28;20334;-74
2022/01/12 05:41:30;;;;;;;30.88;17.15;;;;;;;0.35;100.00;102119.59;5016510;28;20025;-74
2022/01/12 05:43:57;;;;;;;27.02;16.08;;;;;;;0.47;100.00;102114.84;5016249;28;20013;-74
2022/01/12 05:46:26;;;;;;;30.83;16.95;;;;;;;0.43;100.00;102116.47;5016395;28;20030;-74
2022/01/12 05:51:36;;;;;;;28.80;17.20;;;;;;;0.31;100.00;102129.09;5016431;28;20057;-74
2022/01/12 05:54:02;;;;;;;26.75;17.60;;;;;;;0.32;100.00;102120.38;5014927;28;20391;-74
2022/01/12 05:56:27;;;;;;;29.90;17.20;;;;;;;0.30;100.00;102117.69;5016181;28;20026;-74
2022/01/12 05:58:52;;;;;;;32.28;19.50;;;;;;;0.25;100.00;102119.22;5015997;28;20049;-74
2022/01/12 06:01:18;;;;;;;31.38;19.48;;;;;;;0.27;100.00;102107.03;5015854;28;20538;-74
2022/01/12 06:03:44;;;;;;;31.80;19.65;;;;;;;0.42;100.00;102122.56;5015356;28;20017;-74
2022/01/12 06:06:09;;;;;;;35.58;18.52;;;;;;;0.42;100.00;102126.91;5015823;28;20029;-74
2022/01/12 06:08:34;;;;;;;34.95;19.58;;;;;;;0.38;100.00;102132.88;5015979;28;20036;-73
2022/01/12 06:11:00;;;;;;;32.97;19.13;;;;;;;0.42;100.00;102142.69;5016076;28;20025;-73
2022/01/12 06:13:25;;;;;;;31.00;19.58;;;;;;;0.54;100.00;102151.06;5015987;28;20017;-73
2022/01/12 06:15:50;;;;;;;35.63;19.10;;;;;;;0.42;100.00;102153.19;5015753;28;20022;-73
2022/01/12 06:18:15;;;;;;;28.08;17.92;;;;;;;0.50;100.00;102136.03;5015812;28;20368;-73
2022/01/12 06:20:41;;;;;;;32.65;17.55;;;;;;;0.62;100.00;102140.00;5015996;28;20467;-75
2022/01/12 06:23:06;;;;;;;30.17;16.90;;;;;;;0.48;100.00;102142.94;5015572;28;20026;-75
2022/01/12 06:25:31;;;;;;;28.33;17.23;;;;;;;0.51;100.00;102147.44;5015924;28;20034;-75
2022/01/12 06:28:10;;;;;;;30.63;18.60;;;;;;;0.55;100.00;102152.88;5015920;28;20017;-75
2022/01/12 06:33:19;;;;;;;;;;;;;;;0.53;100.00;102146.66;5016195;28;20061;-74
2022/01/12 06:35:44;;;;;;;33.80;18.67;;;;;;;0.46;100.00;102135.84;5014083;28;19917;-73
2022/01/12 06:38:09;;;;;;;34.65;19.60;;;;;;;0.48;100.00;102145.56;5015273;28;20278;-73
2022/01/12 06:40:35;;;;;;;33.30;19.15;;;;;;;0.54;100.00;102148.44;5015428;28;20152;-73
2022/01/12 06:43:02;;;;;;;31.58;18.88;;;;;;;0.52;100.00;102155.38;5015184;28;20033;-73
2022/01/12 06:45:27;;;;;;;32.60;18.38;;;;;;;0.60;100.00;102149.53;5015166;28;20026;-73
2022/01/12 06:47:52;;;;;;;32.67;19.27;;;;;;;0.54;100.00;102158.09;5015090;28;20102;-73
2022/01/12 06:50:17;;;;;;;33.92;18.77;;;;;;;0.66;100.00;102162.94;5015266;28;20386;-73
2022/01/12 06:52:43;;;;;;;32.45;18.98;;;;;;;0.62;100.00;102161.03;5015255;28;20076;-74
2022/01/12 06:55:08;;;;;;;37.72;18.70;;;;;;;0.61;100.00;102165.41;5015055;28;20387;-74
2022/01/12 06:57:34;;;;;;;35.90;18.45;;;;;;;0.73;100.00;102167.63;5015054;28;20029;-75
2022/01/12 06:59:59;;;;;;;31.70;17.75;;;;;;;0.76;100.00;102175.66;5014854;28;20022;-74
2022/01/12 07:02:24;;;;;;;30.75;17.40;;;;;;;0.56;100.00;102166.94;5014867;28;20095;-74
2022/01/12 07:04:49;;;;;;;32.00;17.95;;;;;;;0.64;100.00;102169.88;5014946;28;20104;-74
2022/01/12 07:07:15;;;;;;;35.20;18.90;;;;;;;0.55;100.00;102166.03;5015023;28;20037;-75
2022/01/12 07:09:40;;;;;;;31.60;18.50;;;;;;;0.52;100.00;102170.25;5014599;28;20025;-74
2022/01/12 07:12:06;;;;;;;33.55;18.58;;;;;;;0.50;100.00;102172.81;5013698;28;20518;-74
2022/01/12 07:14:31;;;;;;;30.98;18.55;;;;;;;0.52;100.00;102179.03;5014592;28;20033;-75
2022/01/12 07:16:56;;;;;;;30.88;18.52;;;;;;;0.46;100.00;102181.41;5013616;28;20026;-75
2022/01/12 07:19:21;;;;;;;31.35;19.85;;;;;;;0.47;100.00;102191.09;5008663;28;20041;-75
2022/01/12 07:21:48;;;;;;;34.53;20.08;;;;;;;0.48;100.00;102189.38;5009629;28;20029;-74
2022/01/12 07:24:13;;;;;;;33.58;22.05;;;;;;;0.61;100.00;102194.31;5013953;28;20022;-75
2022/01/12 07:26:39;;;;;;;30.30;20.00;;;;;;;0.44;100.00;102209.34;5012996;28;20616;-74
2022/01/12 07:29:04;;;;;;;33.58;20.40;;;;;;;0.55;100.00;102212.44;5014183;28;20026;-74
2022/01/12 07:31:29;;;;;;;34.10;20.30;;;;;;;0.48;100.00;102224.44;5012716;28;20030;-74
2022/01/12 07:33:55;;;;;;;32.08;19.83;;;;;;;0.47;100.00;102227.88;5014045;28;20100;-75
2022/01/12 07:36:21;;;;;;;41.92;20.65;;;;;;;0.43;100.00;102233.84;5014215;28;20029;-74
2022/01/12 07:38:49;;;;;;;30.00;19.38;;;;;;;0.40;100.00;102246.84;5014150;28;20017;-75
2022/01/12 07:41:15;;;;;;;31.98;19.63;;;;;;;0.49;100.00;102244.63;5014315;28;20030;-75
2022/01/12 07:43:40;;;;;;;32.33;18.67;;;;;;;0.49;100.00;102252.50;5014034;28;20048;-74
2022/01/12 07:46:06;;;;;;;31.92;20.52;;;;;;;0.46;100.00;102260.28;5013930;28;20061;-75
2022/01/12 07:48:31;;;;;;;33.80;19.67;;;;;;;0.55;100.00;102252.78;5012639;28;20065;-75
2022/01/12 07:50:56;;;;;;;32.47;19.17;;;;;;;0.54;100.00;102250.97;5012558;28;20032;-75
2022/01/12 07:53:22;;;;;;;35.90;21.80;;;;;;;0.58;100.00;102261.63;5013848;28;20021;-75
2022/01/12 07:55:47;;;;;;;38.13;22.80;;;;;;;0.53;100.00;102257.09;5013638;28;20393;-74
2022/01/12 07:58:12;;;;;;;45.17;23.73;;;;;;;0.55;100.00;102262.41;5013814;28;20025;-74
2022/01/12 08:00:37;;;;;;;46.58;22.00;;;;;;;0.58;100.00;102259.00;5013647;28;20513;-75
2022/01/12 08:03:03;;;;;;;37.67;20.60;;;;;;;0.55;100.00;102263.31;5013629;28;20145;-75
2022/01/12 08:05:28;;;;;;;35.47;20.27;;;;;;;0.53;100.00;102261.44;5013408;28;20159;-75
2022/01/12 08:07:55;;;;;;;35.58;19.33;;;;;;;0.53;100.00;102259.72;5013776;28;20391;-74
2022/01/12 08:10:21;;;;;;;38.25;21.00;;;;;;;0.64;100.00;102259.28;5013604;28;20044;-75
2022/01/12 08:12:46;;;;;;;34.78;21.08;;;;;;;0.63;100.00;102262.72;5013972;28;20030;-75
2022/01/12 08:15:12;;;;;;;37.85;21.73;;;;;;;0.61;100.00;102269.66;5013594;28;20037;-75
2022/01/12 08:17:38;;;;;;;43.03;23.58;;;;;;;0.59;100.00;102276.59;5013678;28;20029;-75
2022/01/12 08:20:07;;;;;;;45.60;24.23;;;;;;;0.55;100.00;102270.28;5012298;28;20022;-76
2022/01/12 08:22:32;;;;;;;45.22;23.42;;;;;;;0.66;100.00;102278.66;5009448;28;20040;-74
2022/01/12 08:24:57;;;;;;;46.72;23.17;;;;;;;0.65;100.00;102274.22;5014167;28;20025;-75
2022/01/12 08:27:23;;;;;;;41.88;24.35;;;;;;;0.61;100.00;102273.19;5012695;28;20557;-75
2022/01/12 08:29:58;;;;;;;46.63;23.17;;;;;;;0.66;100.00;102271.66;5012816;28;20022;-75
2022/01/12 08:32:24;;;;;;;49.42;24.45;;;;;;;0.58;100.00;102280.03;5013244;28;20033;-75
2022/01/12 08:34:49;;;;;;;48.53;26.70;;;;;;;0.60;100.00;102270.47;5013110;28;20040;-75
2022/01/12 08:37:14;;;;;;;53.05;27.00;;;;;;;0.55;100.00;102284.34;5011588;28;20380;-75
2022/01/12 08:39:39;;;;;;;52.90;27.45;;;;;;;0.58;100.00;102283.56;5012945;28;20089;-74
2022/01/12 08:42:05;;;;;;;66.70;33.45;;;;;;;0.61;100.00;102286.34;5012973;28;20033;-75
2022/01/12 08:44:30;;;;;;;57.60;30.10;;;;;;;0.64;100.00;102281.22;5012925;28;20029;-75
2022/01/12 08:46:55;;;;;;;64.60;30.55;;;;;;;0.63;100.00;102286.41;5013093;28;20120;-75
2022/01/12 08:49:21;;;;;;;56.05;27.65;;;;;;;0.69;100.00;102289.31;5013047;28;20052;-75
2022/01/12 08:51:46;;;;;;;53.05;27.80;;;;;;;0.69;100.00;102284.06;5013079;28;20030;-75
2022/01/12 08:54:13;;;;;;;54.92;26.13;;;;;;;0.82;100.00;102284.56;5013229;28;20042;-75
2022/01/12 08:56:39;;;;;;;58.78;28.30;;;;;;;0.72;100.00;102278.91;5013016;28;20124;-75
2022/01/12 08:59:04;;;;;;;62.22;28.70;;;;;;;0.78;100.00;102292.31;5013039;28;20435;-75
2022/01/12 09:01:29;;;;;;;63.33;29.80;;;;;;;0.64;100.00;102296.09;5013124;28;20022;-75
2022/01/12 09:03:54;;;;;;;63.00;28.58;;;;;;;0.68;100.00;102305.91;5011450;28;20022;-75
2022/01/12 09:06:20;;;;;;;59.72;27.83;;;;;;;0.87;100.00;102306.72;5012834;28;20022;-75
2022/01/12 09:08:45;;;;;;;68.43;28.02;;;;;;;0.74;100.00;102307.91;5013046;28;20030;-75
2022/01/12 09:11:12;;;;;;;68.13;29.92;;;;;;;0.77;100.00;102313.31;5013077;28;20463;-75
2022/01/12 09:13:38;;;;;;;64.40;30.65;;;;;;;0.65;100.00;102316.28;5012854;28;20040;-75
2022/01/12 09:16:06;;;;;;;61.58;30.15;;;;;;;0.74;100.00;102319.34;5012988;28;20026;-75
2022/01/12 09:18:36;;;;;;;66.07;30.33;;;;;;;0.69;100.00;102331.38;5011572;28;20537;-74
2022/01/12 09:21:03;;;;;;;60.58;31.15;;;;;;;0.76;100.00;102327.28;5012867;28;20053;-75
2022/01/12 09:23:28;;;;;;;56.72;29.33;;;;;;;0.80;100.00;102317.81;5012799;28;20076;-74
2022/01/12 09:25:53;;;;;;;55.97;29.33;;;;;;;0.78;100.00;102331.78;5012983;28;20029;-75
2022/01/12 09:28:19;;;;;;;63.47;29.70;;;;;;;0.72;100.00;102336.75;5013002;28;20028;-75
2022/01/12 09:30:44;;;;;;;63.53;29.65;;;;;;;0.75;100.00;102331.63;5012631;28;20053;-75
2022/01/12 09:33:09;;;;;;;65.88;31.17;;;;;;;0.85;100.00;102329.44;5011705;28;20465;-75
2022/01/12 09:35:35;;;;;;;70.72;31.08;;;;;;;0.82;100.00;102337.19;5006847;28;20100;-75
2022/01/12 09:38:00;;;;;;;65.53;31.42;;;;;;;0.89;100.00;102339.25;4995457;28;20026;-75
2022/01/12 09:40:26;;;;;;;66.95;31.02;;;;;;;0.89;100.00;102339.25;5015210;28;20033;-75
2022/01/12 09:42:52;;;;;;;77.45;33.03;;;;;;;0.93;100.00;102341.16;5016118;28;20061;-75
2022/01/12 09:45:19;;;;;;;82.40;31.67;;;;;;;1.06;100.00;102339.97;5016069;28;20033;-74
2022/01/12 09:47:47;;;;;;;67.88;30.42;;;;;;;1.11;100.00;102345.41;5016178;28;20053;-75
2022/01/12 09:50:16;;;;;;;76.60;31.73;;;;;;;1.09;100.00;102344.44;5015988;28;20034;-75
2022/01/12 09:52:41;;;;;;;80.13;35.80;;;;;;;1.08;100.00;102340.91;5015992;28;20021;-75
2022/01/12 09:55:07;;;;;;;80.93;34.38;;;;;;;1.06;100.00;102346.94;5015978;28;20024;-75
2022/01/12 09:57:32;;;;;;;84.97;36.78;;;;;;;1.08;100.00;102334.78;5016041;28;20025;-75
2022/01/12 09:59:57;;;;;;;75.78;32.65;;;;;;;1.14;100.00;102342.00;5015867;28;20038;-75
2022/01/12 10:02:23;;;;;;;70.20;29.95;;;;;;;1.15;100.00;102341.19;5014793;28;20112;-80
2022/01/12 10:05:04;;;;;;;74.75;30.52;;;;;;;1.14;100.00;102342.91;5014874;28;20533;-74
2022/01/12 10:07:30;;;;;;;68.93;29.17;;;;;;;1.09;100.00;102342.72;5015718;28;20029;-75
2022/01/12 10:10:01;;;;;;;68.55;31.70;;;;;;;1.16;100.00;102346.50;5014516;28;20116;-74
2022/01/12 10:12:27;;;;;;;72.35;31.90;;;;;;;1.15;100.00;102334.19;5015919;28;20121;-75
2022/01/12 10:15:01;;;;;;;71.28;30.55;;;;;;;1.25;100.00;102322.31;5015792;28;20422;-75
2022/01/12 10:17:38;;;;;;;;;;;;;;;1.24;100.00;102319.63;5011550;28;20546;-74
2022/01/12 10:20:23;;;;;;;66.90;31.60;;;;;;;1.21;100.00;102321.28;5013167;28;19909;-74
2022/01/12 10:22:59;;;;;;;86.13;33.20;;;;;;;1.20;100.00;102324.78;4997500;28;20105;-74
2022/01/12 10:25:27;;;;;;;82.60;32.33;;;;;;;1.28;100.00;102321.56;5033729;28;20029;-74
2022/01/12 10:27:53;;;;;;;75.78;32.55;;;;;;;1.33;100.00;102326.19;5035264;28;20104;-74
2022/01/12 10:30:24;;;;;;;74.75;30.70;;;;;;;1.32;100.00;102334.00;5034976;28;20037;-74
2022/01/12 10:33:10;;;;;;;62.25;27.80;;;;;;;1.43;100.00;102343.25;5035489;28;20025;-74
2022/01/12 10:35:39;;;;;;;80.57;31.52;;;;;;;1.34;100.00;102341.13;5035457;28;20025;-75
2022/01/12 10:38:16;;;;;;;80.13;33.35;;;;;;;1.36;100.00;102341.22;5017615;28;20070;-74
2022/01/12 10:40:49;;;;;;;70.50;30.58;;;;;;;1.47;100.00;102346.03;5017778;28;20026;-74
2022/01/12 10:43:40;;;;;;;79.22;31.05;;;;;;;1.52;100.00;102347.13;5015209;28;20026;-75
2022/01/12 10:46:09;;;;;;;70.53;30.35;;;;;;;1.49;100.00;102365.41;5015248;28;20033;-74
2022/01/12 10:48:48;;;;;;;78.25;30.65;;;;;;;1.53;100.00;102365.59;5015137;28;20026;-74
2022/01/12 10:51:16;;;;;;;80.72;30.95;;;;;;;1.48;100.00;102360.97;5015184;28;20104;-75
2022/01/12 10:53:41;;;;;;;80.82;32.00;;;;;;;1.49;100.00;102350.50;5015206;28;20025;-75
2022/01/12 10:56:10;;;;;;;70.88;30.88;;;;;;;1.55;100.00;102349.84;5015251;28;20022;-75
2022/01/12 10:58:41;;;;;;;62.90;28.80;;;;;;;1.60;100.00;102348.28;5014941;28;20159;-74
2022/01/12 11:01:08;;;;;;;72.60;29.98;;;;;;;1.61;100.00;102355.38;5013613;28;20026;-75
2022/01/12 11:03:34;;;;;;;71.55;29.85;;;;;;;1.60;100.00;102363.22;5013467;28;20467;-74
2022/01/12 11:06:00;;;;;;;79.53;31.15;;;;;;;1.66;100.00;102361.72;5014833;28;20029;-74
2022/01/12 11:08:27;;;;;;;70.35;28.98;;;;;;;1.63;100.00;102371.22;5013514;28;20161;-74
2022/01/12 11:10:55;;;;;;;69.05;29.10;;;;;;;1.64;100.00;102373.94;5014665;28;20037;-74
2022/01/12 11:13:21;;;;;;;69.57;29.83;;;;;;;1.60;100.00;102372.00;5014702;28;20052;-75
2022/01/12 11:15:47;;;;;;;72.00;30.65;;;;;;;1.72;100.00;102365.44;5014641;28;20108;-75
2022/01/12 11:18:15;;;;;;;62.60;28.20;;;;;;;1.78;100.00;102370.94;5013955;28;20029;-74
2022/01/12 11:20:42;;;;;;;75.75;31.45;;;;;;;1.81;100.00;102360.53;5014478;28;20152;-75
2022/01/12 11:23:15;;;;;;;73.72;29.10;;;;;;;1.85;100.00;102361.56;5064191;23;20048;-85
2022/01/12 11:25:54;;;;;;;63.55;26.48;;;;;;;2.00;100.00;102361.28;5059892;28;20048;-85
2022/01/12 11:28:27;;;;;;;81.80;29.13;;;;;;;2.00;100.00;102363.91;5057335;28;20035;-82
2022/01/12 11:30:55;;;;;;;71.55;27.98;;;;;;;2.02;100.00;102364.88;5057751;28;20020;-82
2022/01/12 11:33:29;;;;;;;63.63;26.55;;;;;;;2.15;100.00;102363.63;5060806;28;20025;-83
2022/01/12 11:35:56;;;;;;;62.72;26.65;;;;;;;2.28;100.00;102357.06;5060101;28;20107;-83
2022/01/12 11:38:27;;;;;;;61.08;24.63;;;;;;;2.36;100.00;102356.47;5060517;28;20028;-83
2022/01/12 11:40:55;;;;;;;56.85;25.60;;;;;;;2.46;100.00;102355.97;5060936;28;20111;-81
2022/01/12 11:43:29;;;;;;;56.20;24.58;;;;;;;2.58;100.00;102366.06;5061120;28;20028;-82
2022/01/12 11:46:06;;;;;;;51.13;22.45;;;;;;;2.54;100.00;102358.88;5063252;28;20040;-80
2022/01/12 11:48:34;;;;;;;53.00;24.10;;;;;;;2.51;100.00;102348.22;5063512;28;20398;-82
2022/01/12 11:50:59;;;;;;;52.58;24.00;;;;;;;2.49;100.00;102348.19;5063435;28;20035;-81
2022/01/12 11:53:25;;;;;;;54.70;23.02;;;;;;;2.63;100.00;102353.06;5063521;28;20029;-82
2022/01/12 11:55:50;;;;;;;51.70;23.05;;;;;;;2.70;100.00;102346.28;5064137;28;20025;-81
2022/01/12 11:58:18;;;;;;;48.42;21.95;;;;;;;2.78;100.00;102337.75;5063100;28;20397;-82
2022/01/12 12:00:44;;;;;;;47.30;22.70;;;;;;;2.89;100.00;102346.06;5064494;28;20024;-83
2022/01/12 12:03:20;;;;;;;49.17;21.88;;;;;;;3.25;100.00;102333.19;5061703;28;20021;-82
2022/01/12 12:05:45;;;;;;;48.33;21.63;;;;;;;3.19;100.00;102336.53;5057675;28;20098;-82
2022/01/12 12:08:22;;;;;;;43.58;20.98;;;;;;;3.34;100.00;102332.59;5058551;28;20490;-82
2022/01/12 12:10:51;;;;;;;46.70;20.52;;;;;;;3.39;100.00;102341.59;5060200;28;20389;-80
2022/01/12 12:13:20;;;;;;;45.50;20.67;;;;;;;3.42;100.00;102346.97;5059654;28;20075;-82
2022/01/12 12:15:46;;;;;;;39.67;18.25;;;;;;;3.39;100.00;102340.69;5062077;28;20044;-83
2022/01/12 12:18:12;;;;;;;40.78;17.77;;;;;;;3.55;100.00;102352.66;5061425;28;20044;-83
2022/01/12 12:20:37;;;;;;;40.63;18.40;;;;;;;3.60;100.00;102360.72;5062271;28;20029;-82
2022/01/12 12:23:03;;;;;;;40.95;18.23;;;;;;;3.90;100.00;102352.88;5061177;28;20074;-83
2022/01/12 12:25:31;;;;;;;35.33;16.73;;;;;;;4.00;100.00;102350.50;5062610;28;20035;-83
2022/01/12 12:28:01;;;;;;;36.25;17.50;;;;;;;4.05;100.00;102338.34;5062767;28;20100;-83
2022/01/12 12:30:29;;;;;;;38.88;17.48;;;;;;;3.77;100.00;102341.03;5063431;28;20029;-83
2022/01/12 12:32:57;;;;;;;36.00;16.77;;;;;;;3.76;100.00;102341.00;5062351;28;20029;-82
2022/01/12 12:35:29;;;;;;;34.40;16.73;;;;;;;3.56;100.00;102330.66;5061616;28;20025;-83
2022/01/12 12:38:01;;;;;;;37.65;16.90;;;;;;;3.66;100.00;102339.81;5063653;28;20029;-82
2022/01/12 12:40:30;;;;;;;43.88;18.35;;;;;;;3.91;100.00;102330.91;5062265;28;20021;-82
2022/01/12 12:43:03;;;;;;;39.58;16.90;;;;;;;3.74;100.00;102334.72;5053842;28;20029;-82
2022/01/12 12:45:52;;;;;;;36.55;17.15;;;;;;;3.73;100.00;102330.31;5060147;28;20113;-83
2022/01/12 12:48:25;;;;;;;34.80;17.58;;;;;;;3.68;100.00;102336.38;5059391;28;20029;-82